Time;durP1;ratioP1;P1;durP2;ratioP2;P2;SDS_P1;SDS_P2;PMS_P1;PMS_P2;Temp;Humidity;BMP_temperature;BMP_pressure;BME280_temperature;BME280_humidity;BME280_pressure;Samples;Min_cycle;Max_cycle;Signal;HPM_P1;HPM_P2
2021/03/04 00:01:09;;;;;;;66.13;29.63;;;1.70;99.90;;;;;;4173090;28;20319;-69
2021/03/04 00:03:10;;;;;;;63.33;29.73;;;1.70;99.90;;;;;;4173397;28;20316;-67
2021/03/04 00:05:13;;;;;;;74.33;31.53;;;1.70;99.90;;;;;;4172073;28;20270;-70
2021/03/04 00:07:14;;;;;;;68.47;29.30;;;1.70;99.90;;;;;;4172809;28;20269;-65
2021/03/04 00:09:15;;;;;;;65.83;29.53;;;1.60;99.90;;;;;;4172733;28;21139;-65
2021/03/04 00:11:17;;;;;;;65.13;29.33;;;1.60;99.90;;;;;;4173036;28;20286;-70
2021/03/04 00:13:18;;;;;;;60.23;29.20;;;1.50;99.90;;;;;;4158515;28;20697;-65
2021/03/04 00:15:21;;;;;;;64.60;28.03;;;1.50;99.90;;;;;;4156332;28;20770;-66
2021/03/04 00:17:22;;;;;;;61.37;29.17;;;1.50;99.90;;;;;;4156207;28;20274;-65
2021/03/04 00:19:24;;;;;;;61.97;27.57;;;1.40;99.90;;;;;;4154865;28;20754;-67
2021/03/04 00:21:25;;;;;;;62.57;28.53;;;1.40;99.90;;;;;;4156298;28;20685;-66
2021/03/04 00:23:26;;;;;;;62.63;27.33;;;1.40;99.90;;;;;;4156225;28;20364;-66
2021/03/04 00:25:30;;;;;;;61.73;27.67;;;1.40;99.90;;;;;;4156405;28;20321;-67
2021/03/04 00:27:31;;;;;;;64.43;29.13;;;1.40;99.90;;;;;;4155045;28;20369;-66
2021/03/04 00:29:33;;;;;;;67.83;29.93;;;1.30;99.90;;;;;;4155820;28;20674;-65
2021/03/04 00:31:34;;;;;;;65.77;29.57;;;1.20;99.90;;;;;;4156529;28;21085;-65
2021/03/04 00:33:35;;;;;;;63.20;29.10;;;1.10;99.90;;;;;;4156335;28;21181;-66
2021/03/04 00:35:36;;;;;;;66.00;28.27;;;1.10;99.90;;;;;;4156322;28;20267;-65
2021/03/04 00:37:39;;;;;;;65.30;28.23;;;1.00;99.90;;;;;;4156361;28;20336;-65
2021/03/04 00:39:40;;;;;;;58.93;28.23;;;1.00;99.90;;;;;;4156346;28;20287;-65
2021/03/04 00:41:44;;;;;;;61.87;27.80;;;1.00;99.90;;;;;;4156319;28;20389;-65
2021/03/04 00:43:45;;;;;;;60.73;27.63;;;1.00;99.90;;;;;;4155771;28;20327;-65
2021/03/04 00:45:47;;;;;;;58.93;27.23;;;1.00;99.90;;;;;;4154976;28;20321;-66
2021/03/04 00:47:48;;;;;;;67.63;30.23;;;1.00;99.90;;;;;;4155866;28;20628;-65
2021/03/04 00:49:49;;;;;;;59.80;26.23;;;1.00;99.90;;;;;;4155829;28;20993;-65
2021/03/04 00:51:50;;;;;;;62.73;28.37;;;1.00;99.90;;;;;;4155619;28;20838;-65
2021/03/04 00:53:51;;;;;;;61.87;29.70;;;1.00;99.90;;;;;;4155287;28;20705;-67
2021/03/04 00:55:53;;;;;;;68.43;28.60;;;1.00;99.90;;;;;;4156286;28;20278;-65
2021/03/04 00:57:54;;;;;;;63.87;27.50;;;1.00;99.90;;;;;;4155343;28;21089;-65
2021/03/04 00:59:55;;;;;;;57.87;26.90;;;0.90;99.90;;;;;;4154896;28;20404;-65
2021/03/04 01:01:56;;;;;;;60.73;26.93;;;0.90;99.90;;;;;;4154721;28;20282;-66
2021/03/04 01:03:57;;;;;;;62.63;26.73;;;0.90;99.90;;;;;;4155529;28;20270;-65
2021/03/04 01:05:58;;;;;;;49.67;24.63;;;0.80;99.90;;;;;;4155539;28;20271;-67
2021/03/04 01:08:00;;;;;;;63.87;27.90;;;0.80;99.90;;;;;;4155485;28;20271;-67
2021/03/04 01:10:08;;;;;;;60.17;28.07;;;0.70;99.90;;;;;;4155730;28;20360;-66
2021/03/04 01:12:09;;;;;;;57.30;27.30;;;0.70;99.90;;;;;;4155074;28;20275;-68
2021/03/04 01:14:10;;;;;;;53.23;23.37;;;0.70;99.90;;;;;;4154883;28;20290;-67
2021/03/04 01:16:12;;;;;;;53.10;24.67;;;0.70;99.90;;;;;;4157226;28;20270;-66
2021/03/04 01:18:13;;;;;;;47.47;21.83;;;0.70;99.90;;;;;;4159097;28;20270;-66
2021/03/04 01:20:16;;;;;;;40.80;18.53;;;0.70;99.90;;;;;;4158716;28;20317;-66
2021/03/04 01:22:17;;;;;;;47.37;21.30;;;0.60;99.90;;;;;;4158683;28;20333;-66
2021/03/04 01:24:19;;;;;;;43.50;20.33;;;0.60;99.90;;;;;;4158862;28;20267;-68
2021/03/04 01:26:20;;;;;;;49.90;21.07;;;0.50;99.90;;;;;;4158532;28;20715;-68
2021/03/04 01:28:21;;;;;;;44.93;21.97;;;0.60;99.90;;;;;;4158747;28;20344;-66
2021/03/04 01:30:29;;;;;;;51.00;22.93;;;0.50;99.90;;;;;;4158864;28;20267;-70
2021/03/04 01:32:30;;;;;;;39.43;20.37;;;0.50;99.90;;;;;;4159423;28;20262;-65
2021/03/04 01:34:31;;;;;;;47.07;20.40;;;0.40;99.90;;;;;;4158482;28;20341;-66
2021/03/04 01:36:33;;;;;;;46.77;23.10;;;0.50;99.90;;;;;;4158543;28;20678;-66
2021/03/04 01:38:34;;;;;;;47.80;22.33;;;0.50;99.90;;;;;;4158015;28;20360;-65
2021/03/04 01:40:35;;;;;;;48.30;23.53;;;0.50;99.90;;;;;;4158856;28;20324;-66
2021/03/04 01:42:36;;;;;;;48.60;23.10;;;0.40;99.90;;;;;;4158385;28;20620;-65
2021/03/04 01:44:38;;;;;;;47.67;21.07;;;0.40;99.90;;;;;;4158265;28;20283;-63
2021/03/04 01:46:39;;;;;;;47.40;19.93;;;0.40;99.90;;;;;;4158655;28;20271;-71
2021/03/04 01:48:41;;;;;;;44.90;19.93;;;0.40;99.90;;;;;;4158490;28;20320;-67
2021/03/04 01:50:42;;;;;;;55.60;21.83;;;0.40;99.90;;;;;;4158362;28;20305;-65
2021/03/04 01:52:44;;;;;;;41.93;20.73;;;0.50;99.90;;;;;;4158364;28;20832;-67
2021/03/04 01:54:45;;;;;;;43.77;20.43;;;0.50;99.90;;;;;;4158739;28;20305;-65
2021/03/04 01:58:57;;;;;;;;;;;0.50;99.90;;;;;;4564295;22;20316;-70
2021/03/04 02:00:58;;;;;;;48.17;22.13;;;0.50;99.90;;;;;;4175592;28;20310;-71
2021/03/04 02:02:59;;;;;;;48.73;22.27;;;0.60;99.90;;;;;;4180847;28;20679;-65
2021/03/04 02:05:01;;;;;;;48.07;22.10;;;0.50;99.90;;;;;;4179438;28;20266;-65
2021/03/04 02:07:34;;;;;;;48.40;21.37;;;0.60;99.90;;;;;;4180576;28;20278;-73
2021/03/04 02:09:38;;;;;;;45.10;21.43;;;0.60;99.90;;;;;;4131415;28;20740;-71
2021/03/04 02:12:10;;;;;;;43.83;19.73;;;0.60;99.90;;;;;;4180679;28;20775;-65
2021/03/04 02:14:17;;;;;;;45.60;21.03;;;0.60;99.90;;;;;;4157907;28;20351;-64
2021/03/04 02:16:29;;;;;;;44.13;20.77;;;0.60;99.90;;;;;;4179648;28;20761;-71
2021/03/04 02:18:35;;;;;;;44.07;19.57;;;0.60;99.90;;;;;;4179681;28;20312;-65
2021/03/04 02:21:05;;;;;;;47.47;21.23;;;0.60;99.90;;;;;;4180580;28;20317;-65
2021/03/04 02:23:09;;;;;;;42.63;21.17;;;0.60;99.90;;;;;;4177874;28;20684;-66
2021/03/04 02:25:24;;;;;;;46.40;19.60;;;0.60;99.90;;;;;;4180566;28;20254;-64
2021/03/04 02:27:28;;;;;;;49.23;20.53;;;0.60;99.90;;;;;;4178076;28;20657;-65
2021/03/04 02:29:42;;;;;;;48.97;20.43;;;0.60;99.90;;;;;;4180609;28;20270;-71
2021/03/04 02:31:44;;;;;;;45.90;21.30;;;0.60;99.90;;;;;;4179136;28;20661;-66
2021/03/04 02:33:47;;;;;;;52.17;21.60;;;0.60;99.90;;;;;;4180006;28;20286;-65
2021/03/04 02:35:49;;;;;;;47.83;23.27;;;0.60;99.90;;;;;;4178925;28;20293;-65
2021/03/04 02:37:58;;;;;;;46.60;21.40;;;0.60;99.90;;;;;;4180107;28;20714;-70
2021/03/04 02:40:00;;;;;;;45.63;21.00;;;0.50;99.90;;;;;;4178542;28;20816;-68
2021/03/04 02:42:01;;;;;;;54.30;23.67;;;0.50;99.90;;;;;;4179667;28;20266;-69
2021/03/04 02:44:09;;;;;;;47.90;21.63;;;0.50;99.90;;;;;;4179001;28;20270;-64
2021/03/04 02:46:10;;;;;;;47.40;21.00;;;0.50;99.90;;;;;;4180223;28;20335;-64
2021/03/04 02:48:14;;;;;;;41.90;19.80;;;0.50;99.90;;;;;;4179269;28;20242;-71
2021/03/04 02:50:16;;;;;;;46.63;20.67;;;0.50;99.90;;;;;;4179755;28;20254;-67
2021/03/04 02:52:19;;;;;;;38.03;18.93;;;0.50;99.90;;;;;;4179111;28;20316;-64
2021/03/04 02:54:21;;;;;;;49.87;20.67;;;0.40;99.90;;;;;;4179311;28;20340;-65
2021/03/04 02:56:26;;;;;;;48.63;22.07;;;0.40;99.90;;;;;;4179470;28;20308;-68
2021/03/04 02:58:28;;;;;;;46.40;22.23;;;0.40;99.90;;;;;;4178204;28;20274;-64
2021/03/04 03:00:30;;;;;;;43.27;22.07;;;0.30;99.90;;;;;;4176460;28;20277;-67
2021/03/04 03:02:32;;;;;;;46.97;20.57;;;0.30;99.90;;;;;;4173589;28;20336;-71
2021/03/04 03:04:36;;;;;;;48.73;21.57;;;0.20;99.90;;;;;;4175840;28;20331;-68
2021/03/04 03:06:38;;;;;;;45.43;20.47;;;0.20;99.90;;;;;;4173919;28;20344;-65
2021/03/04 03:08:40;;;;;;;37.37;19.10;;;0.20;99.90;;;;;;4180742;28;20323;-66
2021/03/04 03:10:48;;;;;;;39.90;18.80;;;0.20;99.90;;;;;;4172411;28;20285;-66
2021/03/04 03:12:49;;;;;;;42.33;20.10;;;0.10;99.90;;;;;;4191337;28;20277;-66
2021/03/04 03:14:51;;;;;;;46.83;21.90;;;0.10;99.90;;;;;;4190355;28;20285;-65
2021/03/04 03:16:52;;;;;;;52.03;22.27;;;0.10;99.90;;;;;;4191873;28;20528;-65
2021/03/04 03:18:54;;;;;;;55.33;21.97;;;0.10;99.90;;;;;;4191173;28;20331;-65
2021/03/04 03:20:55;;;;;;;51.60;22.70;;;0.10;99.90;;;;;;4191208;28;20269;-66
2021/03/04 03:22:58;;;;;;;55.67;24.63;;;0.10;99.90;;;;;;4190565;28;20242;-64
2021/03/04 03:24:59;;;;;;;51.67;21.83;;;0.10;99.90;;;;;;4191803;28;20820;-65
2021/03/04 03:27:01;;;;;;;53.63;24.33;;;0.10;99.90;;;;;;4189853;28;20257;-66
2021/03/04 03:29:03;;;;;;;59.33;25.87;;;0.00;99.90;;;;;;4174231;28;20327;-65
2021/03/04 03:31:06;;;;;;;53.77;24.20;;;0.00;99.90;;;;;;4174702;28;20323;-65
2021/03/04 03:33:11;;;;;;;58.43;25.07;;;0.00;99.90;;;;;;4173617;28;20270;-65
2021/03/04 03:35:14;;;;;;;51.93;22.60;;;0.00;99.90;;;;;;4174867;28;20672;-65
2021/03/04 03:37:18;;;;;;;43.17;19.63;;;0.00;99.90;;;;;;4173778;28;20343;-70
2021/03/04 03:39:19;;;;;;;46.00;19.13;;;0.10;99.90;;;;;;4174317;28;20271;-69
2021/03/04 03:41:22;;;;;;;48.07;20.43;;;0.00;99.90;;;;;;4171654;28;20289;-63
2021/03/04 03:43:24;;;;;;;50.20;21.97;;;0.00;99.90;;;;;;4175129;28;20701;-65
2021/03/04 03:45:28;;;;;;;49.37;20.53;;;-0.10;99.90;;;;;;4173913;28;20774;-66
2021/03/04 03:47:34;;;;;;;48.30;22.63;;;-0.10;99.90;;;;;;4174932;28;20684;-72
2021/03/04 03:49:38;;;;;;;52.57;22.30;;;-0.10;99.90;;;;;;4173268;28;20669;-66
2021/03/04 03:51:40;;;;;;;55.80;22.80;;;-0.10;99.90;;;;;;4175108;28;20266;-66
2021/03/04 03:53:43;;;;;;;52.90;21.77;;;0.00;99.90;;;;;;4173630;28;20795;-65
2021/03/04 03:55:49;;;;;;;55.67;23.43;;;0.00;99.90;;;;;;4174667;28;20316;-65
2021/03/04 03:57:52;;;;;;;51.10;22.40;;;0.00;99.90;;;;;;4173503;28;20687;-64
2021/03/04 03:59:56;;;;;;;45.87;22.37;;;0.00;99.90;;;;;;4175230;28;20316;-66
2021/03/04 04:01:58;;;;;;;51.17;23.60;;;0.10;99.90;;;;;;4172603;28;20270;-67
2021/03/04 04:04:01;;;;;;;57.50;25.30;;;0.10;99.90;;;;;;4174443;28;20316;-64
2021/03/04 04:06:03;;;;;;;55.90;25.70;;;0.10;99.90;;;;;;4173276;28;20266;-64
2021/03/04 04:08:05;;;;;;;59.00;26.87;;;0.10;99.90;;;;;;4174270;28;20868;-65
2021/03/04 04:10:08;;;;;;;51.47;24.17;;;0.10;99.90;;;;;;4173465;28;20250;-64
2021/03/04 04:12:09;;;;;;;60.20;27.50;;;0.00;99.90;;;;;;4155638;28;20345;-66
2021/03/04 04:14:10;;;;;;;58.47;24.83;;;0.00;99.90;;;;;;4174060;28;20339;-64
2021/03/04 04:16:12;;;;;;;50.27;23.10;;;0.00;99.90;;;;;;4173509;28;20262;-65
2021/03/04 04:18:13;;;;;;;51.83;23.73;;;0.00;99.90;;;;;;4174379;28;20274;-65
2021/03/04 04:20:17;;;;;;;44.53;21.33;;;0.10;99.90;;;;;;4173139;28;20506;-66
2021/03/04 04:22:20;;;;;;;47.40;21.77;;;0.00;99.90;;;;;;4174342;28;20270;-66
2021/03/04 04:24:21;;;;;;;47.27;21.10;;;0.00;99.90;;;;;;4171361;28;20278;-64
2021/03/04 04:26:23;;;;;;;42.90;19.80;;;0.00;99.90;;;;;;4174127;28;20680;-65
2021/03/04 04:28:24;;;;;;;57.97;24.50;;;-0.10;99.90;;;;;;4172925;28;20323;-66
2021/03/04 04:30:26;;;;;;;49.43;23.43;;;-0.10;99.90;;;;;;4174624;28;20277;-65
2021/03/04 04:32:27;;;;;;;51.73;22.70;;;-0.20;99.90;;;;;;4172814;28;20323;-66
2021/03/04 04:34:28;;;;;;;45.87;22.37;;;-0.20;99.90;;;;;;4173185;28;20309;-72
2021/03/04 04:36:29;;;;;;;48.47;21.17;;;-0.20;99.90;;;;;;4172289;28;20762;-64
2021/03/04 04:38:30;;;;;;;41.63;17.90;;;-0.20;99.90;;;;;;4173497;28;20379;-65
2021/03/04 04:40:33;;;;;;;51.33;20.90;;;-0.20;99.90;;;;;;4173469;28;20734;-65
2021/03/04 04:42:35;;;;;;;44.17;19.70;;;-0.20;99.90;;;;;;4173567;28;20281;-71
2021/03/04 04:44:36;;;;;;;44.73;19.60;;;-0.20;99.90;;;;;;4173452;28;20745;-69
2021/03/04 04:46:37;;;;;;;53.60;19.63;;;-0.30;99.90;;;;;;4172828;28;20285;-66
2021/03/04 04:48:39;;;;;;;63.23;19.23;;;-0.30;99.90;;;;;;4173243;28;20328;-71
2021/03/04 04:50:41;;;;;;;59.77;21.97;;;-0.40;99.90;;;;;;4171870;28;20387;-67
2021/03/04 04:52:42;;;;;;;60.30;23.53;;;-0.40;99.90;;;;;;4173409;28;20279;-65
2021/03/04 04:54:43;;;;;;;56.10;23.00;;;-0.40;99.90;;;;;;4171964;28;20803;-64
2021/03/04 04:56:44;;;;;;;59.00;23.67;;;-0.40;99.90;;;;;;4173891;28;20322;-72
2021/03/04 04:58:46;;;;;;;66.43;24.90;;;-0.50;99.90;;;;;;4171049;28;20301;-66
2021/03/04 05:00:47;;;;;;;59.07;24.77;;;-0.50;99.90;;;;;;4173833;28;20278;-65
2021/03/04 05:02:49;;;;;;;61.87;24.53;;;-0.40;99.90;;;;;;4171744;28;20316;-65
2021/03/04 05:04:50;;;;;;;55.27;23.60;;;-0.40;99.90;;;;;;4156157;28;20344;-66
2021/03/04 05:06:51;;;;;;;57.63;24.87;;;-0.40;99.90;;;;;;4172173;28;20328;-65
2021/03/04 05:08:52;;;;;;;59.00;24.57;;;-0.30;99.90;;;;;;4171998;28;20348;-68
2021/03/04 05:10:53;;;;;;;57.10;24.53;;;-0.20;99.90;;;;;;4168855;28;20274;-63
2021/03/04 05:12:55;;;;;;;58.40;23.73;;;-0.20;99.90;;;;;;4172640;28;20607;-67
2021/03/04 05:14:57;;;;;;;59.83;26.03;;;-0.20;99.90;;;;;;4173093;28;20294;-64
2021/03/04 05:16:58;;;;;;;60.93;25.10;;;-0.20;99.90;;;;;;4172292;28;20335;-63
2021/03/04 05:18:59;;;;;;;61.00;24.90;;;-0.10;99.90;;;;;;4173166;28;20262;-64
2021/03/04 05:21:01;;;;;;;59.37;22.97;;;-0.10;99.90;;;;;;4171328;28;20270;-63
2021/03/04 05:23:03;;;;;;;67.57;25.90;;;0.00;99.90;;;;;;4173268;28;20274;-65
2021/03/04 05:25:05;;;;;;;51.43;22.13;;;0.00;99.90;;;;;;4171594;28;20274;-68
2021/03/04 05:27:07;;;;;;;54.77;22.07;;;0.00;99.90;;;;;;4173446;28;20274;-66
2021/03/04 05:29:08;;;;;;;51.17;22.27;;;0.00;99.90;;;;;;4171596;28;20274;-69
2021/03/04 05:31:09;;;;;;;48.80;22.57;;;0.00;99.90;;;;;;4173127;28;20266;-64
2021/03/04 05:33:10;;;;;;;53.00;22.70;;;0.00;99.90;;;;;;4171968;28;20278;-65
2021/03/04 05:35:12;;;;;;;61.70;23.43;;;0.00;99.90;;;;;;4172828;28;20390;-64
2021/03/04 05:37:13;;;;;;;60.67;24.57;;;0.00;99.90;;;;;;4171604;28;20786;-66
2021/03/04 05:39:14;;;;;;;65.33;22.97;;;-0.10;99.90;;;;;;4172720;28;20277;-65
2021/03/04 05:41:21;;;;;;;54.10;22.93;;;0.00;99.90;;;;;;4171549;28;20277;-64
2021/03/04 05:43:22;;;;;;;60.47;24.50;;;0.00;99.90;;;;;;4172409;28;20266;-70
2021/03/04 05:45:26;;;;;;;63.43;26.23;;;0.00;99.90;;;;;;4170274;28;20282;-64
2021/03/04 05:47:28;;;;;;;65.33;24.90;;;0.00;99.90;;;;;;4171833;28;20873;-65
2021/03/04 05:49:31;;;;;;;75.43;25.93;;;0.00;99.90;;;;;;4172129;28;20332;-65
2021/03/04 05:51:37;;;;;;;62.20;23.10;;;-0.10;99.90;;;;;;4171723;28;20717;-65
2021/03/04 05:53:39;;;;;;;48.43;20.87;;;-0.10;99.90;;;;;;4171989;28;20307;-68
2021/03/04 05:55:45;;;;;;;60.23;21.50;;;-0.10;99.90;;;;;;4170587;28;20332;-66
2021/03/04 05:57:50;;;;;;;53.63;22.73;;;-0.20;99.90;;;;;;4171517;28;20308;-63
2021/03/04 05:59:53;;;;;;;62.73;23.57;;;-0.20;99.90;;;;;;4171332;28;20282;-70
2021/03/04 06:01:55;;;;;;;70.30;24.03;;;-0.30;99.90;;;;;;4171433;28;20347;-68
2021/03/04 06:03:58;;;;;;;69.73;25.57;;;-0.30;99.90;;;;;;4174135;28;20659;-63
2021/03/04 06:05:59;;;;;;;64.33;25.67;;;-0.40;99.90;;;;;;4173263;28;20856;-68
2021/03/04 06:08:06;;;;;;;77.30;29.17;;;-0.40;99.90;;;;;;4173431;28;20382;-63
2021/03/04 06:10:08;;;;;;;63.63;25.83;;;-0.40;99.90;;;;;;4172769;28;20270;-66
2021/03/04 06:12:10;;;;;;;60.63;25.67;;;-0.40;99.90;;;;;;4155946;28;20275;-63
2021/03/04 06:14:11;;;;;;;64.23;25.43;;;-0.40;99.90;;;;;;4173201;28;21207;-63
2021/03/04 06:16:13;;;;;;;69.60;27.13;;;-0.40;99.90;;;;;;4173791;28;20274;-67
2021/03/04 06:18:14;;;;;;;72.83;30.07;;;-0.40;99.90;;;;;;4174019;28;20271;-65
2021/03/04 06:20:15;;;;;;;85.53;32.77;;;-0.40;99.90;;;;;;4173703;28;20324;-64
2021/03/04 06:22:30;;;;;;;71.43;30.90;;;-0.30;99.90;;;;;;4173705;28;20717;-64
2021/03/04 06:24:32;;;;;;;64.50;31.03;;;-0.40;99.90;;;;;;4173269;28;20324;-64
2021/03/04 06:26:37;;;;;;;75.37;34.30;;;-0.30;99.90;;;;;;4174147;28;20274;-63
2021/03/04 06:28:38;;;;;;;86.77;35.27;;;-0.30;99.90;;;;;;4173685;28;20262;-65
2021/03/04 06:30:41;;;;;;;73.77;32.57;;;-0.40;99.90;;;;;;4173574;28;20270;-63
2021/03/04 06:32:54;;;;;;;111.43;46.43;;;-0.30;99.90;;;;;;4173605;28;20383;-64
2021/03/04 06:35:05;;;;;;;79.23;33.93;;;-0.30;99.90;;;;;;4173007;28;20348;-65
2021/03/04 06:37:06;;;;;;;81.93;31.80;;;-0.30;99.90;;;;;;4173754;28;20335;-65
2021/03/04 06:39:08;;;;;;;77.97;33.00;;;-0.30;99.90;;;;;;4155849;28;20266;-64
2021/03/04 06:41:19;;;;;;;104.33;35.10;;;-0.30;99.90;;;;;;4173021;28;20320;-64
2021/03/04 06:43:25;;;;;;;78.27;32.60;;;-0.30;99.90;;;;;;4163552;28;20352;-62
2021/03/04 06:45:35;;;;;;;77.73;34.17;;;-0.30;99.90;;;;;;4164577;28;20308;-65
2021/03/04 06:47:36;;;;;;;88.23;35.40;;;-0.30;99.90;;;;;;4170061;28;20369;-67
2021/03/04 06:49:42;;;;;;;82.37;35.40;;;-0.20;99.90;;;;;;4178769;28;20326;-65
2021/03/04 06:51:44;;;;;;;79.60;34.67;;;-0.30;99.90;;;;;;4172944;28;21265;-67
2021/03/04 06:53:51;;;;;;;85.87;36.60;;;-0.20;99.90;;;;;;4174088;28;20328;-63
2021/03/04 06:55:59;;;;;;;79.17;34.57;;;-0.20;99.90;;;;;;4155320;28;20380;-62
2021/03/04 06:58:02;;;;;;;81.10;34.63;;;-0.10;99.90;;;;;;4172532;28;20266;-69
2021/03/04 07:00:17;;;;;;;80.33;34.77;;;-0.10;99.90;;;;;;4174066;28;20315;-67
2021/03/04 07:02:24;;;;;;;77.47;33.77;;;-0.20;99.90;;;;;;4170576;28;20274;-62
2021/03/04 07:04:27;;;;;;;77.90;32.40;;;-0.10;99.90;;;;;;4159585;28;20333;-63
2021/03/04 07:06:28;;;;;;;79.37;34.17;;;-0.10;99.90;;;;;;4170339;28;20270;-67
2021/03/04 07:08:35;;;;;;;82.93;34.40;;;0.00;99.90;;;;;;4171797;28;20336;-62
2021/03/04 07:10:36;;;;;;;70.33;32.20;;;0.10;99.90;;;;;;4172854;28;20274;-66
2021/03/04 07:12:38;;;;;;;83.93;31.30;;;0.10;99.90;;;;;;4173966;28;20324;-65
2021/03/04 07:14:40;;;;;;;82.20;34.53;;;0.10;99.90;;;;;;4171954;28;20297;-62
2021/03/04 07:16:46;;;;;;;75.13;31.60;;;0.20;99.90;;;;;;4173227;28;20833;-64
2021/03/04 07:18:48;;;;;;;81.93;33.97;;;0.20;99.90;;;;;;4173325;28;20668;-62
2021/03/04 07:20:50;;;;;;;75.17;31.67;;;0.20;99.90;;;;;;4172947;28;20282;-72
2021/03/04 07:22:51;;;;;;;80.73;33.47;;;0.30;99.90;;;;;;4173378;28;20722;-62
2021/03/04 07:24:54;;;;;;;80.97;35.83;;;0.30;99.90;;;;;;4172710;28;20852;-72
2021/03/04 07:26:56;;;;;;;77.30;32.53;;;0.40;99.90;;;;;;4173340;28;20352;-62
2021/03/04 07:29:06;;;;;;;75.30;31.50;;;0.60;99.90;;;;;;4155453;28;20309;-68
2021/03/04 07:31:10;;;;;;;78.37;30.03;;;0.80;99.90;;;;;;4167929;28;21048;-59
2021/03/04 07:33:11;;;;;;;78.37;31.30;;;0.80;99.90;;;;;;4168668;28;20678;-64
2021/03/04 07:35:14;;;;;;;71.60;30.70;;;0.80;99.90;;;;;;4156861;28;20793;-68
2021/03/04 07:37:18;;;;;;;80.33;29.03;;;0.80;99.90;;;;;;4155772;28;20313;-68
2021/03/04 07:39:33;;;;;;;78.63;30.40;;;0.80;99.90;;;;;;4155915;28;20286;-63
2021/03/04 07:41:38;;;;;;;73.40;29.83;;;0.70;99.90;;;;;;4172769;28;20422;-64
2021/03/04 07:43:59;;;;;;;84.40;31.53;;;0.70;99.90;;;;;;4154631;28;20343;-62
2021/03/04 07:46:00;;;;;;;77.65;32.00;;;0.80;99.90;;;;;;4173240;28;21166;-68
2021/03/04 07:48:09;;;;;;;80.10;35.70;;;0.90;99.90;;;;;;4172776;28;20055;-62
2021/03/04 07:50:19;;;;;;;94.13;32.73;;;0.90;99.90;;;;;;4172999;28;20316;-62
2021/03/04 07:52:23;;;;;;;80.63;31.73;;;1.00;99.90;;;;;;4172409;28;20274;-70
2021/03/04 07:54:28;;;;;;;85.17;32.83;;;1.00;99.90;;;;;;4171876;28;20043;-59
2021/03/04 07:56:29;;;;;;;86.97;32.73;;;1.10;99.90;;;;;;4171293;28;20386;-67
2021/03/04 07:58:38;;;;;;;81.10;34.17;;;1.10;99.90;;;;;;4172494;28;20297;-69
2021/03/04 08:00:40;;;;;;;70.17;32.00;;;1.20;99.90;;;;;;4172295;28;20270;-68
2021/03/04 08:02:43;;;;;;;68.10;29.40;;;1.20;99.90;;;;;;4172482;28;20254;-72
2021/03/04 08:04:44;;;;;;;62.40;28.97;;;1.20;99.90;;;;;;4171230;28;20684;-65
2021/03/04 08:06:47;;;;;;;61.27;29.43;;;1.20;99.90;;;;;;4168560;28;20320;-64
2021/03/04 08:08:49;;;;;;;64.23;28.20;;;1.30;99.90;;;;;;4160351;28;20320;-71
2021/03/04 08:10:54;;;;;;;74.33;30.50;;;1.30;99.90;;;;;;4170211;28;20262;-71
2021/03/04 08:13:00;;;;;;;72.63;31.53;;;1.30;99.90;;;;;;4171840;28;20266;-70
2021/03/04 08:15:02;;;;;;;78.83;31.23;;;1.40;99.90;;;;;;4172014;28;20290;-70
2021/03/04 08:17:04;;;;;;;71.40;31.43;;;1.40;99.90;;;;;;4172169;28;20262;-63
2021/03/04 08:19:05;;;;;;;71.87;30.93;;;1.50;99.90;;;;;;4172632;28;20332;-67
2021/03/04 08:21:08;;;;;;;66.77;30.73;;;1.60;99.90;;;;;;4171759;28;20607;-72
2021/03/04 08:23:10;;;;;;;84.47;33.23;;;1.70;99.90;;;;;;4172760;28;20289;-64
2021/03/04 08:25:13;;;;;;;70.30;29.90;;;1.70;99.90;;;;;;4171219;28;20320;-74
2021/03/04 08:27:14;;;;;;;62.77;27.90;;;1.80;99.90;;;;;;4172446;28;20332;-70
2021/03/04 08:29:16;;;;;;;59.33;24.53;;;1.90;99.90;;;;;;4168989;28;20289;-66
2021/03/04 08:31:17;;;;;;;61.20;25.90;;;2.00;99.90;;;;;;4156171;28;20278;-67
2021/03/04 08:33:18;;;;;;;61.47;26.10;;;1.90;99.90;;;;;;4171658;28;20278;-63
2021/03/04 08:35:21;;;;;;;53.10;24.87;;;1.90;99.90;;;;;;4172596;28;20936;-65
2021/03/04 08:37:23;;;;;;;50.80;24.60;;;2.00;99.90;;;;;;4172742;28;20281;-68
2021/03/04 08:39:31;;;;;;;52.67;24.37;;;2.10;99.90;;;;;;4172186;28;20273;-67
2021/03/04 08:41:32;;;;;;;52.07;24.37;;;2.10;99.90;;;;;;4172554;28;20276;-66
2021/03/04 08:43:34;;;;;;;49.10;24.00;;;2.10;99.90;;;;;;4158539;28;20278;-70
2021/03/04 08:45:35;;;;;;;55.50;22.97;;;2.30;99.90;;;;;;4171387;28;20308;-68
2021/03/04 08:47:39;;;;;;;57.40;24.60;;;2.30;99.90;;;;;;4171633;28;20774;-68
2021/03/04 08:49:49;;;;;;;54.33;25.93;;;2.40;99.90;;;;;;4172490;28;20270;-67
2021/03/04 08:51:51;;;;;;;58.28;23.75;;;2.50;99.90;;;;;;4172127;28;20316;-64
2021/03/04 08:53:53;;;;;;;57.77;24.87;;;2.50;99.90;;;;;;4172147;28;20041;-67
2021/03/04 08:55:56;;;;;;;49.53;21.93;;;2.50;99.90;;;;;;4171894;28;20848;-68
2021/03/04 08:58:07;;;;;;;49.47;23.40;;;2.60;99.90;;;;;;4172492;28;20748;-63
2021/03/04 09:00:10;;;;;;;43.28;21.05;;;2.60;99.90;;;;;;4172376;28;20335;-70
2021/03/04 09:02:17;;;;;;;44.20;20.97;;;2.70;99.90;;;;;;4170173;28;20083;-71
2021/03/04 09:04:23;;;;;;;44.87;19.27;;;2.70;99.90;;;;;;4172248;28;20265;-71
2021/03/04 09:06:24;;;;;;;48.70;21.90;;;2.80;99.90;;;;;;4171885;28;20278;-73
2021/03/04 09:08:32;;;;;;;45.43;20.93;;;2.80;99.90;;;;;;4171931;28;20327;-72
2021/03/04 09:10:52;;;;;;;46.77;20.83;;;2.90;99.90;;;;;;4171156;28;20664;-69
2021/03/04 09:12:53;;;;;;;41.47;18.90;;;2.90;99.90;;;;;;4167119;28;20356;-71
2021/03/04 09:15:00;;;;;;;41.37;19.83;;;3.00;99.90;;;;;;4171731;28;20336;-69
2021/03/04 09:17:02;;;;;;;40.60;18.53;;;3.10;99.90;;;;;;4171644;28;20356;-66
2021/03/04 09:19:03;;;;;;;38.10;19.70;;;3.20;99.90;;;;;;4170769;28;20742;-62
2021/03/04 09:21:10;;;;;;;43.93;18.70;;;3.30;99.90;;;;;;4171615;28;20423;-61
2021/03/04 09:23:12;;;;;;;46.00;22.77;;;3.30;99.90;;;;;;4170706;28;20278;-68
2021/03/04 09:25:20;;;;;;;49.10;21.80;;;3.40;99.90;;;;;;4171632;28;20769;-64
2021/03/04 09:27:22;;;;;;;39.07;18.60;;;3.50;99.90;;;;;;4166974;28;20282;-71
2021/03/04 09:29:23;;;;;;;44.00;20.33;;;3.60;99.90;;;;;;4170475;28;20333;-68
2021/03/04 09:31:25;;;;;;;37.50;18.07;;;3.60;99.90;;;;;;4170049;28;20327;-71
2021/03/04 09:33:26;;;;;;;41.17;20.07;;;3.70;99.90;;;;;;4171500;28;20295;-63
2021/03/04 09:35:28;;;;;;;37.93;18.00;;;3.70;99.90;;;;;;4168441;28;20286;-69
2021/03/04 09:37:31;;;;;;;38.60;18.77;;;3.80;99.90;;;;;;4173339;28;20774;-64
2021/03/04 09:39:44;;;;;;;43.80;19.53;;;3.80;99.90;;;;;;4175485;28;20311;-71
2021/03/04 09:41:53;;;;;;;39.27;19.80;;;3.90;99.90;;;;;;4189818;28;20748;-70
2021/03/04 09:44:01;;;;;;;40.77;18.77;;;4.00;99.90;;;;;;4183906;28;20813;-71
2021/03/04 09:46:03;;;;;;;33.30;15.83;;;4.00;99.90;;;;;;4172115;28;20665;-67
2021/03/04 09:48:06;;;;;;;34.40;16.50;;;4.10;99.90;;;;;;4174106;28;20290;-69
2021/03/04 09:50:28;;;;;;;34.37;17.13;;;4.20;99.90;;;;;;4174514;28;20831;-69
2021/03/04 09:52:31;;;;;;;35.70;16.30;;;4.30;99.90;;;;;;4177762;28;20270;-66
2021/03/04 09:54:32;;;;;;;37.43;17.90;;;4.50;99.90;;;;;;4174843;28;20269;-70
2021/03/04 09:56:34;;;;;;;41.13;17.93;;;4.50;99.90;;;;;;4174412;28;20844;-69
2021/03/04 09:58:42;;;;;;;39.80;17.60;;;4.70;99.90;;;;;;4173797;28;20294;-69
2021/03/04 10:00:44;;;;;;;41.27;19.53;;;4.70;99.90;;;;;;4174046;28;20666;-68
2021/03/04 10:02:49;;;;;;;43.37;19.30;;;4.70;99.90;;;;;;4174586;28;20282;-70
2021/03/04 10:05:03;;;;;;;43.23;19.07;;;4.80;99.90;;;;;;4174282;28;20262;-69
2021/03/04 10:07:16;;;;;;;46.30;20.47;;;4.80;99.90;;;;;;4173969;28;20340;-62
2021/03/04 10:09:25;;;;;;;51.47;20.43;;;4.80;99.90;;;;;;4159094;28;20283;-63
2021/03/04 10:11:28;;;;;;;40.23;18.77;;;4.90;99.90;;;;;;4174109;28;20326;-59
2021/03/04 10:13:31;;;;;;;40.33;18.97;;;4.90;99.90;;;;;;4173830;28;20320;-71
2021/03/04 10:15:40;;;;;;;34.33;17.50;;;5.00;99.90;;;;;;4174071;28;21329;-69
2021/03/04 10:17:41;;;;;;;39.53;18.30;;;5.00;99.90;;;;;;4174043;28;20340;-67
2021/03/04 10:19:43;;;;;;;40.47;17.57;;;5.10;99.90;;;;;;4174960;28;20262;-62
2021/03/04 10:21:45;;;;;;;34.50;18.17;;;5.20;99.90;;;;;;4170575;28;20935;-61
2021/03/04 10:23:47;;;;;;;32.23;16.03;;;5.20;99.90;;;;;;4174440;28;20270;-63
2021/03/04 10:25:49;;;;;;;34.60;16.60;;;5.20;99.90;;;;;;4172784;28;20683;-67
2021/03/04 10:27:51;;;;;;;40.87;18.37;;;5.30;99.90;;;;;;4173944;28;20381;-67
2021/03/04 10:29:53;;;;;;;34.17;16.90;;;5.40;99.90;;;;;;4174129;28;20266;-68
2021/03/04 10:31:56;;;;;;;37.67;17.43;;;5.40;99.90;;;;;;4173734;28;20684;-70
2021/03/04 10:33:57;;;;;;;36.03;18.30;;;5.50;99.90;;;;;;4173727;28;20304;-63
2021/03/04 10:35:58;;;;;;;32.87;16.47;;;5.50;99.90;;;;;;4173970;28;20294;-70